Flight Track Log - Related Links

Times and Time Zones

All times are in EDT time to prevent confusion due to time zone crossing. See the SWA3675 flight status page for this flight to view local times or setup timezone preferences in your user account.

Time Position Orientation Groundspeed Altitude Reporting Facility
EDT Latitude Longitude Course Direction KTS MPH feet Rate Location/Type
Thu 07:55:30 PM 39.1500 -76.6500 153° Southeast 163 188 1,600  Level Potomac TRACON
Thu 07:56:30 PM 39.1000 -76.6167 153° Southeast 226 260 3,600 2,800 Climbing Potomac TRACON
Thu 07:57:30 PM 39.0500 -76.5667 142° Southeast 263 303 7,200 3,850 Climbing Potomac TRACON
Thu 07:58:30 PM 38.9833 -76.5000 142° Southeast 287 330 11,300 3,372 Climbing Potomac TRACON
Thu 07:59:31 PM 38.9167 -76.4500 150° Southeast 309 356 14,000 942 Climbing Potomac TRACON
Thu 08:01:22 PM 38.7661 -76.5075 197° South 328 377 14,000  Level Washington Center
Thu 08:02:23 PM 38.6903 -76.5892 220° Southwest 340 391 14,000  Level Washington Center
Thu 08:03:23 PM 38.6125 -76.6703 219° Southwest 363 418 14,000  Level Washington Center
Thu 08:04:25 PM 38.5264 -76.7250 206° Southwest 369 425 14,000  Level Washington Center
Thu 08:05:22 PM 38.4267 -76.7128 175° South 341 392 14,000  Level Washington Center
Thu 08:06:23 PM 38.3267 -76.6981 173° South 348 400 14,000  Level Washington Center
Thu 08:07:23 PM 38.2183 -76.6806 173° South 354 407 14,000  Level Washington Center
Thu 08:08:24 PM 38.1206 -76.6661 173° South 354 407 14,000  Level Washington Center
Thu 08:09:22 PM 38.0203 -76.6697 182° South 360 414 14,000  Level Washington Center
Thu 08:10:22 PM 37.9200 -76.6764 183° South 365 420 14,000  Level Washington Center
Thu 08:10:49 PM 37.8742 -76.6861 190° South 366 421 14,000  Level Washington Center
Thu 08:11:17 PM 37.8306 -76.6592 154° Southeast 361 415 14,000  Level Washington Center
Thu 08:12:18 PM 37.7625 -76.5689 134° Southeast 346 398 14,000 -520 Level Washington Center
Thu 08:13:24 PM 37.6925 -76.4708 132° Southeast 336 387 12,900 -1,500 Descending Washington Center
Thu 08:14:34 PM 37.6200 -76.3731 133° Southeast 333 383 10,600 -1,431 Descending Washington Center
Thu 08:15:34 PM 37.5642 -76.2914 131° Southeast 305 351 9,800 -936 Descending Washington Center
Thu 08:16:23 PM 37.5186 -76.2256 131° Southeast 305 351 8,900 -1,091 Descending Washington Center
Thu 08:17:24 PM 37.4394 -76.2064 169° South 276 318 7,800 -939 Descending Washington Center
Thu 08:18:18 PM 37.3728 -76.1981 174° South 288 331 7,100 -365 Descending Washington Center
Thu 08:19:19 PM 37.2853 -76.1817 172° South 281 323 7,100  Level Washington Center
Thu 08:20:20 PM 37.2081 -76.1681 172° South 284 327 7,100 -451 Level Washington Center
Thu 08:21:32 PM 37.1142 -76.1753 184° South 291 335 6,100 -480 Descending Washington Center
Thu 08:22:25 PM 37.0475 -76.2033 199° South 282 325 6,100 -632 Level Washington Center
Thu 08:23:26 PM 36.9742 -76.2367 200° South 286 329 4,900 -1,276 Descending Washington Center
Thu 08:24:32 PM 36.9050 -76.3011 217° Southwest 279 321 3,400 -1,364 Descending Washington Center

Login

Don't have an account? Register now (free) for customized features, flight alerts, and more!